createdAt,value
2019-01-23T00:02:00.504Z,97915.16
2019-01-23T00:07:10.464Z,97906.53
2019-01-23T00:12:16.112Z,97903.80
2019-01-23T00:17:21.754Z,97891.27
2019-01-23T00:22:27.368Z,97881.86
2019-01-23T00:27:33.029Z,97878.23
2019-01-23T00:32:40.500Z,97877.16
2019-01-23T00:37:46.538Z,97869.66
2019-01-23T00:42:52.157Z,97875.47
2019-01-23T00:47:57.781Z,97870.21
2019-01-23T00:53:03.490Z,97872.91
2019-01-23T00:58:09.125Z,97872.92
2019-01-23T01:03:14.791Z,97863.23
2019-01-23T01:08:20.417Z,97833.52
2019-01-23T01:13:26.045Z,97864.95
2019-01-23T01:18:33.024Z,97857.55
2019-01-23T01:23:38.609Z,97859.87
2019-01-23T01:28:44.292Z,97852.05
2019-01-23T01:33:49.907Z,97849.82
2019-01-23T01:38:55.677Z,97843.16
2019-01-23T01:44:01.566Z,97845.57
2019-01-23T01:49:10.138Z,97837.39
2019-01-23T01:54:15.802Z,97834.67
2019-01-23T01:59:23.025Z,97825.55
2019-01-23T02:04:28.599Z,97820.13
2019-01-23T02:09:35.522Z,97821.75
2019-01-23T02:14:41.372Z,97815.36
2019-01-23T02:19:47.066Z,97816.46
2019-01-23T02:24:52.704Z,97807.22
2019-01-23T02:29:58.371Z,97811.03
2019-01-23T02:35:04.569Z,97810.76
2019-01-23T02:40:13.910Z,97800.10
2019-01-23T02:45:23.052Z,97794.08
2019-01-23T02:50:28.684Z,97790.22
2019-01-23T02:55:34.556Z,97787.55
2019-01-23T03:00:40.201Z,97785.31
2019-01-23T03:05:45.875Z,97771.17
2019-01-23T03:10:51.479Z,97771.66
2019-01-23T03:15:57.191Z,97758.62
2019-01-23T03:21:03.007Z,97757.99
2019-01-23T03:26:10.185Z,97756.96
2019-01-23T03:31:15.990Z,97752.13
2019-01-23T03:36:21.712Z,97758.67
2019-01-23T03:41:27.331Z,97754.70
2019-01-23T03:46:32.932Z,97754.25
2019-01-23T03:51:38.546Z,97757.98
2019-01-23T03:56:44.966Z,97753.92
2019-01-23T04:01:50.600Z,97743.22
2019-01-23T04:06:56.282Z,97738.97
2019-01-23T04:12:01.946Z,97746.38
2019-01-23T04:17:08.039Z,97744.87
2019-01-23T04:22:13.761Z,97739.62
2019-01-23T04:27:19.479Z,97733.66
2019-01-23T04:32:25.087Z,97731.34
2019-01-23T04:37:30.993Z,97732.25
2019-01-23T04:42:36.647Z,97726.16
2019-01-23T04:47:42.252Z,97721.17
2019-01-23T04:53:21.958Z,97721.33
2019-01-23T04:58:29.131Z,97714.64
2019-01-23T05:03:37.952Z,97715.73
2019-01-23T05:08:46.329Z,97721.03
2019-01-23T05:13:51.972Z,97714.23
2019-01-23T05:18:57.584Z,97705.13
2019-01-23T05:24:03.649Z,97709.30
2019-01-23T05:29:09.693Z,97701.38
2019-01-23T05:34:15.670Z,97697.39
2019-01-23T05:39:21.307Z,97697.91
2019-01-23T05:44:26.957Z,97705.38
2019-01-23T05:49:32.594Z,97696.05
2019-01-23T05:54:38.670Z,97701.45
2019-01-23T05:59:44.828Z,97699.62
2019-01-23T06:04:51.971Z,97709.11
2019-01-23T06:10:04.579Z,97709.08
2019-01-23T06:15:11.744Z,97712.75
2019-01-23T06:20:23.378Z,97716.22
2019-01-23T06:25:29.077Z,97709.02
2019-01-23T06:30:36.486Z,97707.34
2019-01-23T06:35:42.975Z,97704.57
2019-01-23T06:40:51.678Z,97706.92
2019-01-23T06:46:00.469Z,97706.98
2019-01-23T06:51:08.475Z,97712.45
2019-01-23T06:56:18.123Z,97711.96
2019-01-23T07:01:24.735Z,97713.40
2019-01-23T07:06:30.399Z,97712.58
2019-01-23T07:11:36.010Z,97706.34
2019-01-23T07:16:41.616Z,97709.92
2019-01-23T07:21:47.285Z,97714.31
2019-01-23T07:26:53.011Z,97717.86
2019-01-23T07:31:58.593Z,97714.25
2019-01-23T07:37:05.763Z,97715.52
2019-01-23T07:42:11.722Z,97706.46
2019-01-23T07:47:17.310Z,97705.31
2019-01-23T07:52:22.937Z,97701.48
2019-01-23T07:57:28.542Z,97703.59
2019-01-23T08:02:34.376Z,97698.55
2019-01-23T08:07:41.461Z,97691.95
2019-01-23T08:12:47.432Z,97680.96
2019-01-23T08:17:53.073Z,97684.89
2019-01-23T08:22:58.880Z,97673.78
2019-01-23T08:28:05.810Z,97676.91
2019-01-23T08:33:11.439Z,97674.75
2019-01-23T08:38:17.139Z,97671.61
2019-01-23T08:43:22.797Z,97671.03
2019-01-23T08:48:28.458Z,97673.20
2019-01-23T08:53:34.054Z,97666.30
2019-01-23T08:58:39.738Z,97668.30
2019-01-23T09:03:45.335Z,97662.14
2019-01-23T09:08:51.378Z,97658.23
2019-01-23T09:13:56.965Z,97660.48
2019-01-23T09:19:02.673Z,97655.30
2019-01-23T09:24:08.288Z,97652.44
2019-01-23T09:29:14.350Z,97655.92
2019-01-23T09:34:49.350Z,97662.81
2019-01-23T09:40:34.313Z,97656.96
2019-01-23T09:45:58.356Z,97648.77
2019-01-23T09:51:46.628Z,97658.30
2019-01-23T09:56:52.266Z,97649.72
2019-01-23T10:01:57.872Z,97645.98
2019-01-23T10:07:03.499Z,97644.19
2019-01-23T10:12:09.148Z,97650.88
2019-01-23T10:17:14.778Z,97645.47
2019-01-23T10:22:20.387Z,97638.14
2019-01-23T10:27:26.311Z,97637.08
2019-01-23T10:32:35.153Z,97634.73
2019-01-23T10:37:40.965Z,97637.10
2019-01-23T10:42:46.837Z,97634.66
2019-01-23T10:47:56.184Z,97621.85
2019-01-23T10:53:01.068Z,97629.28
2019-01-23T10:58:06.884Z,97617.66
2019-01-23T11:03:12.503Z,97613.84
2019-01-23T11:08:18.210Z,97625.79
2019-01-23T11:13:23.799Z,97613.66
2019-01-23T11:18:30.360Z,97621.34
2019-01-23T11:23:35.963Z,97610.20
2019-01-23T11:28:41.569Z,97611.59
2019-01-23T11:33:47.178Z,97617.70
2019-01-23T11:38:52.821Z,97618.64
2019-01-23T11:43:58.875Z,97620.70
2019-01-23T11:49:04.645Z,97621.27
2019-01-23T11:54:10.277Z,97611.07
2019-01-23T11:59:15.900Z,97609.41
2019-01-23T12:04:22.194Z,97608.08
2019-01-23T12:09:27.772Z,97627.64
2019-01-23T12:14:33.387Z,97614.59
2019-01-23T12:19:39.008Z,97616.45
2019-01-23T12:24:44.674Z,97617.20
2019-01-23T12:29:50.797Z,97613.17
2019-01-23T12:34:56.821Z,97605.31
2019-01-23T12:40:02.440Z,97603.58
2019-01-23T12:45:13.785Z,97600.97
2019-01-23T12:50:22.517Z,97605.95
2019-01-23T12:55:32.370Z,97603.34
2019-01-23T13:00:38.477Z,97604.59
2019-01-23T13:05:44.115Z,97613.09
2019-01-23T13:10:50.892Z,97606.92
2019-01-23T13:15:56.492Z,97607.60
2019-01-23T13:21:02.109Z,97608.97
2019-01-23T13:26:09.136Z,97611.64
2019-01-23T13:31:14.736Z,97602.27
2019-01-23T13:36:20.507Z,97606.23
2019-01-23T13:41:26.109Z,97605.80
2019-01-23T13:46:32.217Z,97606.45
2019-01-23T13:51:37.797Z,97605.85
2019-01-23T13:56:43.408Z,97614.96
2019-01-23T14:01:48.967Z,97607.28
2019-01-23T14:06:54.568Z,97609.92
2019-01-23T14:12:00.586Z,97623.23
2019-01-23T14:17:06.472Z,97620.80
2019-01-23T14:22:12.630Z,97639.47
2019-01-23T18:39:44.644Z,97884.87
2019-01-23T18:45:21.678Z,97897.81
2019-01-23T18:51:26.709Z,97901.23
2019-01-23T18:56:34.231Z,97903.20
2019-01-23T19:01:45.974Z,97904.25
2019-01-23T19:06:51.937Z,97920.66
2019-01-23T19:12:00.144Z,97916.22
2019-01-23T19:17:08.603Z,97919.41
2019-01-23T19:22:14.916Z,97917.63
2019-01-23T19:27:21.569Z,97914.70
2019-01-23T19:32:27.554Z,97912.00
2019-01-23T19:37:34.935Z,97921.54
2019-01-23T19:42:44.148Z,97921.42
2019-01-23T19:47:55.002Z,97918.23
2019-01-23T19:53:02.133Z,97919.97
2019-01-23T19:58:12.023Z,97919.02
2019-01-23T20:03:20.545Z,97921.78
2019-01-23T20:08:26.556Z,97931.83
2019-01-23T20:13:32.916Z,97938.53
2019-01-23T20:18:51.098Z,97939.84
2019-01-23T20:24:00.546Z,97934.38
2019-01-23T20:29:08.864Z,97942.08
2019-01-23T20:34:29.191Z,97941.19
2019-01-23T20:39:36.216Z,97948.52
2019-01-23T20:44:43.964Z,97956.66
2019-01-23T20:49:50.475Z,97965.16
2019-01-23T20:54:58.832Z,97970.83
2019-01-23T21:00:05.735Z,97968.63
2019-01-23T21:05:14.109Z,97968.23
2019-01-23T21:10:20.802Z,97972.95
2019-01-23T21:15:28.990Z,97977.22
2019-01-23T21:20:41.629Z,97960.71
2019-01-23T21:25:50.014Z,97982.38
2019-01-23T21:30:56.224Z,97987.53
2019-01-23T21:36:03.446Z,97997.55
2019-01-23T21:41:11.082Z,97995.12
2019-01-23T21:46:17.282Z,97997.73
2019-01-23T21:51:23.056Z,97999.44
2019-01-23T21:56:28.684Z,98006.27
2019-01-23T22:01:34.687Z,98013.22
2019-01-23T22:06:41.321Z,98019.14
2019-01-23T22:11:47.229Z,98018.29
2019-01-23T22:16:55.192Z,98016.76
2019-01-23T22:22:03.268Z,98023.75
2019-01-23T22:27:09.304Z,98034.77
2019-01-23T22:32:14.935Z,98051.05
2019-01-23T22:37:28.668Z,98052.80
2019-01-23T22:42:35.812Z,98061.05
2019-01-23T22:47:41.431Z,98059.13
2019-01-23T22:52:48.504Z,98062.59
2019-01-23T22:57:55.700Z,98065.89
2019-01-23T23:03:04.026Z,98078.03
2019-01-23T23:08:11.718Z,98082.17
2019-01-23T23:13:22.335Z,98077.45
2019-01-23T23:18:28.346Z,98072.56
2019-01-23T23:23:35.399Z,98081.87
2019-01-23T23:28:40.897Z,98089.03
2019-01-23T23:33:46.462Z,98092.95
2019-01-23T23:38:52.233Z,98090.81
2019-01-23T23:43:58.136Z,98088.13
2019-01-23T23:55:00.884Z,98092.39
